Accueil
METAR-TAF:

METAR-TAF

Aéroports :

Agartala, Inde

latitude: 23-53-24N, longitude: 91-14-32E, altitude: 14 m

Observation

Le bulletin a été fait il y a 7 heures et 45 minutes, à 15:00 UTC
Vent calme
Température 13°C
Humidité 94%
Pression 1018 hPa
Visibilité: 4000 m
brume

METAR: VEAT 221500Z 00000KT 4000 BR NSC 13/12 Q1018 NOSIG

Heure: 04:15 (22:45 UTC)

Prévision

Le bulletin a été fait il y a 2 heures et 45 minutes, à 20:00 UTC
Prévision valable du 22 à 21 UTC au 23 à 06 UTC
Vent kt de nord
Visibilité: 2000 m
Quelques nuages à une hauteur de 1600 ft
brume
Evoluant progressivement
du 22 à 23 UTC au 23 à 01 UTC
Visibilité: 1500 m
brume
Evoluant progressivement
du 23 à 03 UTC au 23 à 05 UTC
Vent 4 kt de nord-est
Visibilité: 5000 m
brume, brume sèche

TAF: VEAT 222000Z 2221/2306 00000KT 2000 BR FEW016 BECMG 2223/2301 1500 BR BECMG 2303/2305 05004KT 3000 BR 2304/2306 5000 HZ

Observations et prévisions météorologiques de plus de 4000 aéroports (messages METAR et TAF).

Les stations disponibles sont représentées par des disques jaunes et rouges sur la carte.

Passer la souris dessus pour voir le nom de la station.

Cliquer dessus pour voir les observations et prévisions météorologiques.

Pour changer de carte: cliquez sur les boutons verts avec une croix noire pour zoomer, sur le bouton vert avec un tiret pour effectuer un zoom arrière, ou sur les flèches vertes pour les cartes adjacentes.


METAR-TAF: